sensor_id;sensor_type;location;lat;lon;timestamp;P1;durP1;ratioP1;P2;durP2;ratioP2
30000;SDS011;16845;48.670;9.000;2023-05-07T00:00:06;5.00;;;3.70;;
30000;SDS011;16845;48.670;9.000;2023-05-07T00:05:01;6.80;;;4.20;;
30000;SDS011;16845;48.670;9.000;2023-05-07T00:07:28;5.10;;;3.28;;
30000;SDS011;16845;48.670;9.000;2023-05-07T00:09:54;5.70;;;3.92;;
30000;SDS011;16845;48.670;9.000;2023-05-07T00:12:20;5.55;;;3.50;;
30000;SDS011;16845;48.670;9.000;2023-05-07T00:14:47;6.50;;;3.88;;
30000;SDS011;16845;48.670;9.000;2023-05-07T00:17:13;4.65;;;4.00;;
30000;SDS011;16845;48.670;9.000;2023-05-07T00:19:40;6.82;;;4.18;;
30000;SDS011;16845;48.670;9.000;2023-05-07T00:22:08;4.03;;;3.55;;
30000;SDS011;16845;48.670;9.000;2023-05-07T00:24:34;5.57;;;3.50;;
30000;SDS011;16845;48.670;9.000;2023-05-07T00:27:01;5.25;;;4.00;;
30000;SDS011;16845;48.670;9.000;2023-05-07T00:29:27;9.15;;;3.70;;
30000;SDS011;16845;48.670;9.000;2023-05-07T00:31:54;5.03;;;3.58;;
30000;SDS011;16845;48.670;9.000;2023-05-07T00:34:20;8.95;;;3.55;;
30000;SDS011;16845;48.670;9.000;2023-05-07T00:36:47;8.10;;;3.55;;
30000;SDS011;16845;48.670;9.000;2023-05-07T00:39:14;8.98;;;4.78;;
30000;SDS011;16845;48.670;9.000;2023-05-07T00:41:41;6.78;;;4.22;;
30000;SDS011;16845;48.670;9.000;2023-05-07T00:44:07;6.25;;;3.78;;
30000;SDS011;16845;48.670;9.000;2023-05-07T00:46:34;5.80;;;3.92;;
30000;SDS011;16845;48.670;9.000;2023-05-07T00:49:00;6.40;;;4.07;;
30000;SDS011;16845;48.670;9.000;2023-05-07T00:51:27;13.45;;;4.15;;
30000;SDS011;16845;48.670;9.000;2023-05-07T00:53:54;5.97;;;3.70;;
30000;SDS011;16845;48.670;9.000;2023-05-07T00:56:22;7.53;;;4.13;;
30000;SDS011;16845;48.670;9.000;2023-05-07T00:58:49;4.35;;;3.70;;
30000;SDS011;16845;48.670;9.000;2023-05-07T01:01:16;4.57;;;4.07;;
30000;SDS011;16845;48.670;9.000;2023-05-07T01:03:43;4.60;;;3.77;;
30000;SDS011;16845;48.670;9.000;2023-05-07T01:06:10;10.23;;;4.57;;
30000;SDS011;16845;48.670;9.000;2023-05-07T01:08:39;6.32;;;3.80;;
30000;SDS011;16845;48.670;9.000;2023-05-07T01:11:07;10.02;;;3.78;;
30000;SDS011;16845;48.670;9.000;2023-05-07T01:13:35;7.90;;;4.00;;
30000;SDS011;16845;48.670;9.000;2023-05-07T01:16:03;4.97;;;3.95;;
30000;SDS011;16845;48.670;9.000;2023-05-07T01:18:30;5.20;;;4.18;;
30000;SDS011;16845;48.670;9.000;2023-05-07T01:20:57;18.52;;;5.22;;
30000;SDS011;16845;48.670;9.000;2023-05-07T01:23:26;9.52;;;4.68;;
30000;SDS011;16845;48.670;9.000;2023-05-07T01:25:54;7.70;;;3.90;;
30000;SDS011;16845;48.670;9.000;2023-05-07T01:28:21;7.03;;;4.60;;
30000;SDS011;16845;48.670;9.000;2023-05-07T01:30:48;10.20;;;4.50;;
30000;SDS011;16845;48.670;9.000;2023-05-07T01:33:19;6.47;;;4.25;;
30000;SDS011;16845;48.670;9.000;2023-05-07T01:35:47;8.93;;;4.10;;
30000;SDS011;16845;48.670;9.000;2023-05-07T01:38:16;13.10;;;4.20;;
30000;SDS011;16845;48.670;9.000;2023-05-07T01:40:44;8.57;;;4.45;;
30000;SDS011;16845;48.670;9.000;2023-05-07T01:43:11;8.38;;;4.30;;
30000;SDS011;16845;48.670;9.000;2023-05-07T01:45:37;9.00;;;4.57;;
30000;SDS011;16845;48.670;9.000;2023-05-07T01:48:06;8.80;;;4.32;;
30000;SDS011;16845;48.670;9.000;2023-05-07T01:50:34;5.78;;;4.35;;
30000;SDS011;16845;48.670;9.000;2023-05-07T01:53:01;7.40;;;4.40;;
30000;SDS011;16845;48.670;9.000;2023-05-07T01:55:28;6.15;;;3.85;;
30000;SDS011;16845;48.670;9.000;2023-05-07T01:57:56;4.97;;;4.40;;
30000;SDS011;16845;48.670;9.000;2023-05-07T02:00:22;7.75;;;4.13;;
30000;SDS011;16845;48.670;9.000;2023-05-07T02:02:49;6.68;;;4.68;;
30000;SDS011;16845;48.670;9.000;2023-05-07T02:05:16;11.77;;;4.97;;
30000;SDS011;16845;48.670;9.000;2023-05-07T02:07:42;6.00;;;4.32;;
30000;SDS011;16845;48.670;9.000;2023-05-07T02:10:09;7.22;;;4.53;;
30000;SDS011;16845;48.670;9.000;2023-05-07T02:12:36;7.13;;;4.30;;
30000;SDS011;16845;48.670;9.000;2023-05-07T02:15:05;5.95;;;4.60;;
30000;SDS011;16845;48.670;9.000;2023-05-07T02:17:32;7.55;;;4.68;;
30000;SDS011;16845;48.670;9.000;2023-05-07T02:19:58;11.20;;;5.35;;
30000;SDS011;16845;48.670;9.000;2023-05-07T02:22:25;5.00;;;4.50;;
30000;SDS011;16845;48.670;9.000;2023-05-07T02:24:51;5.55;;;4.15;;
30000;SDS011;16845;48.670;9.000;2023-05-07T02:27:18;7.90;;;4.57;;
30000;SDS011;16845;48.670;9.000;2023-05-07T02:29:44;7.80;;;4.50;;
30000;SDS011;16845;48.670;9.000;2023-05-07T02:32:12;9.60;;;4.85;;
30000;SDS011;16845;48.670;9.000;2023-05-07T02:34:39;6.55;;;4.32;;
30000;SDS011;16845;48.670;9.000;2023-05-07T02:37:05;10.23;;;4.68;;
30000;SDS011;16845;48.670;9.000;2023-05-07T02:39:31;6.05;;;5.25;;
30000;SDS011;16845;48.670;9.000;2023-05-07T02:41:58;12.30;;;5.20;;
30000;SDS011;16845;48.670;9.000;2023-05-07T02:44:24;11.45;;;4.63;;
30000;SDS011;16845;48.670;9.000;2023-05-07T02:46:51;8.13;;;4.38;;
30000;SDS011;16845;48.670;9.000;2023-05-07T02:49:18;7.07;;;5.57;;
30000;SDS011;16845;48.670;9.000;2023-05-07T02:51:45;6.93;;;4.63;;
30000;SDS011;16845;48.670;9.000;2023-05-07T02:54:11;11.18;;;5.45;;
30000;SDS011;16845;48.670;9.000;2023-05-07T02:56:38;7.57;;;4.53;;
30000;SDS011;16845;48.670;9.000;2023-05-07T02:59:04;12.35;;;4.43;;
30000;SDS011;16845;48.670;9.000;2023-05-07T03:01:31;7.72;;;4.55;;
30000;SDS011;16845;48.670;9.000;2023-05-07T03:03:57;5.45;;;4.35;;
30000;SDS011;16845;48.670;9.000;2023-05-07T03:06:25;6.20;;;4.18;;
30000;SDS011;16845;48.670;9.000;2023-05-07T03:08:51;6.88;;;4.85;;
30000;SDS011;16845;48.670;9.000;2023-05-07T03:11:18;4.85;;;4.20;;
30000;SDS011;16845;48.670;9.000;2023-05-07T03:13:44;8.65;;;4.60;;
30000;SDS011;16845;48.670;9.000;2023-05-07T03:16:11;10.48;;;5.07;;
30000;SDS011;16845;48.670;9.000;2023-05-07T03:18:37;8.38;;;4.53;;
30000;SDS011;16845;48.670;9.000;2023-05-07T03:21:04;6.70;;;4.33;;
30000;SDS011;16845;48.670;9.000;2023-05-07T03:23:32;8.17;;;4.80;;
30000;SDS011;16845;48.670;9.000;2023-05-07T03:25:58;9.00;;;5.05;;
30000;SDS011;16845;48.670;9.000;2023-05-07T03:28:25;7.30;;;5.70;;
30000;SDS011;16845;48.670;9.000;2023-05-07T03:30:51;8.85;;;5.85;;
30000;SDS011;16845;48.670;9.000;2023-05-07T03:33:18;7.47;;;5.10;;
30000;SDS011;16845;48.670;9.000;2023-05-07T03:35:44;9.80;;;5.50;;
30000;SDS011;16845;48.670;9.000;2023-05-07T03:38:11;10.15;;;5.20;;
30000;SDS011;16845;48.670;9.000;2023-05-07T03:40:38;9.13;;;5.35;;
30000;SDS011;16845;48.670;9.000;2023-05-07T03:43:05;8.30;;;5.07;;
30000;SDS011;16845;48.670;9.000;2023-05-07T03:45:31;12.38;;;5.75;;
30000;SDS011;16845;48.670;9.000;2023-05-07T03:47:58;8.57;;;4.88;;
30000;SDS011;16845;48.670;9.000;2023-05-07T03:50:24;7.82;;;4.88;;
30000;SDS011;16845;48.670;9.000;2023-05-07T03:52:51;7.05;;;4.45;;
30000;SDS011;16845;48.670;9.000;2023-05-07T03:55:17;8.82;;;5.00;;
30000;SDS011;16845;48.670;9.000;2023-05-07T03:57:45;9.52;;;4.60;;
30000;SDS011;16845;48.670;9.000;2023-05-07T04:00:12;7.45;;;4.55;;
30000;SDS011;16845;48.670;9.000;2023-05-07T04:02:39;5.63;;;4.80;;
30000;SDS011;16845;48.670;9.000;2023-05-07T04:05:06;5.23;;;4.73;;
30000;SDS011;16845;48.670;9.000;2023-05-07T04:07:33;6.18;;;4.88;;
30000;SDS011;16845;48.670;9.000;2023-05-07T04:09:59;10.82;;;4.97;;
30000;SDS011;16845;48.670;9.000;2023-05-07T04:12:26;6.38;;;5.00;;
30000;SDS011;16845;48.670;9.000;2023-05-07T04:14:54;6.55;;;4.70;;
30000;SDS011;16845;48.670;9.000;2023-05-07T04:17:20;7.47;;;4.85;;
30000;SDS011;16845;48.670;9.000;2023-05-07T04:19:47;8.60;;;5.10;;
30000;SDS011;16845;48.670;9.000;2023-05-07T04:22:13;7.90;;;5.53;;
30000;SDS011;16845;48.670;9.000;2023-05-07T04:24:39;6.07;;;5.03;;
30000;SDS011;16845;48.670;9.000;2023-05-07T04:27:06;7.03;;;4.55;;
30000;SDS011;16845;48.670;9.000;2023-05-07T04:29:32;11.55;;;5.38;;
30000;SDS011;16845;48.670;9.000;2023-05-07T04:32:00;8.57;;;5.20;;
30000;SDS011;16845;48.670;9.000;2023-05-07T04:34:27;7.57;;;5.70;;
30000;SDS011;16845;48.670;9.000;2023-05-07T04:36:53;6.53;;;4.65;;
30000;SDS011;16845;48.670;9.000;2023-05-07T04:39:20;6.57;;;5.32;;
30000;SDS011;16845;48.670;9.000;2023-05-07T04:41:46;9.48;;;5.65;;
30000;SDS011;16845;48.670;9.000;2023-05-07T04:44:12;7.95;;;4.53;;
30000;SDS011;16845;48.670;9.000;2023-05-07T04:46:39;10.40;;;5.60;;
30000;SDS011;16845;48.670;9.000;2023-05-07T04:49:07;8.77;;;5.05;;
30000;SDS011;16845;48.670;9.000;2023-05-07T04:51:33;6.07;;;4.88;;
30000;SDS011;16845;48.670;9.000;2023-05-07T04:54:00;7.90;;;4.65;;
30000;SDS011;16845;48.670;9.000;2023-05-07T04:56:27;5.55;;;4.40;;
30000;SDS011;16845;48.670;9.000;2023-05-07T04:58:54;6.65;;;4.85;;
30000;SDS011;16845;48.670;9.000;2023-05-07T05:01:20;8.13;;;4.72;;
30000;SDS011;16845;48.670;9.000;2023-05-07T05:03:46;5.95;;;4.70;;
30000;SDS011;16845;48.670;9.000;2023-05-07T05:06:14;8.90;;;6.30;;
30000;SDS011;16845;48.670;9.000;2023-05-07T05:08:41;7.20;;;4.97;;
30000;SDS011;16845;48.670;9.000;2023-05-07T05:11:07;7.00;;;5.03;;
30000;SDS011;16845;48.670;9.000;2023-05-07T05:13:34;6.95;;;4.53;;
30000;SDS011;16845;48.670;9.000;2023-05-07T05:16:00;6.13;;;4.90;;
30000;SDS011;16845;48.670;9.000;2023-05-07T05:18:27;9.65;;;5.32;;
30000;SDS011;16845;48.670;9.000;2023-05-07T05:20:53;7.60;;;5.53;;
30000;SDS011;16845;48.670;9.000;2023-05-07T05:23:21;6.70;;;5.15;;
30000;SDS011;16845;48.670;9.000;2023-05-07T05:25:47;6.95;;;4.78;;
30000;SDS011;16845;48.670;9.000;2023-05-07T05:28:14;8.07;;;5.28;;
30000;SDS011;16845;48.670;9.000;2023-05-07T05:30:40;6.05;;;4.82;;
30000;SDS011;16845;48.670;9.000;2023-05-07T05:33:07;8.13;;;5.10;;
30000;SDS011;16845;48.670;9.000;2023-05-07T05:35:33;8.07;;;5.18;;
30000;SDS011;16845;48.670;9.000;2023-05-07T05:38:00;8.85;;;4.75;;
30000;SDS011;16845;48.670;9.000;2023-05-07T05:40:27;6.80;;;4.50;;
30000;SDS011;16845;48.670;9.000;2023-05-07T05:42:54;6.50;;;4.38;;
30000;SDS011;16845;48.670;9.000;2023-05-07T05:45:20;6.82;;;5.05;;
30000;SDS011;16845;48.670;9.000;2023-05-07T05:47:47;7.28;;;4.03;;
30000;SDS011;16845;48.670;9.000;2023-05-07T05:50:13;6.25;;;4.57;;
30000;SDS011;16845;48.670;9.000;2023-05-07T05:52:40;5.25;;;3.47;;
30000;SDS011;16845;48.670;9.000;2023-05-07T05:55:06;4.20;;;3.78;;
30000;SDS011;16845;48.670;9.000;2023-05-07T05:57:35;7.93;;;3.92;;
30000;SDS011;16845;48.670;9.000;2023-05-07T06:00:02;6.28;;;3.30;;
30000;SDS011;16845;48.670;9.000;2023-05-07T06:02:29;10.65;;;3.50;;
30000;SDS011;16845;48.670;9.000;2023-05-07T06:04:56;5.20;;;2.97;;
30000;SDS011;16845;48.670;9.000;2023-05-07T06:07:22;3.65;;;3.03;;
30000;SDS011;16845;48.670;9.000;2023-05-07T06:09:49;6.22;;;3.08;;
30000;SDS011;16845;48.670;9.000;2023-05-07T06:12:15;6.18;;;3.08;;
30000;SDS011;16845;48.670;9.000;2023-05-07T06:14:43;3.47;;;2.95;;
30000;SDS011;16845;48.670;9.000;2023-05-07T06:17:10;7.55;;;3.10;;
30000;SDS011;16845;48.670;9.000;2023-05-07T06:19:36;6.55;;;3.20;;
30000;SDS011;16845;48.670;9.000;2023-05-07T06:22:03;3.75;;;3.40;;
30000;SDS011;16845;48.670;9.000;2023-05-07T06:24:29;4.65;;;3.55;;
30000;SDS011;16845;48.670;9.000;2023-05-07T06:26:56;3.53;;;3.22;;
30000;SDS011;16845;48.670;9.000;2023-05-07T06:29:22;7.20;;;4.25;;
30000;SDS011;16845;48.670;9.000;2023-05-07T06:31:50;7.95;;;3.33;;
30000;SDS011;16845;48.670;9.000;2023-05-07T06:34:17;3.75;;;2.63;;
30000;SDS011;16845;48.670;9.000;2023-05-07T06:36:44;4.78;;;3.08;;
30000;SDS011;16845;48.670;9.000;2023-05-07T06:39:10;4.75;;;2.92;;
30000;SDS011;16845;48.670;9.000;2023-05-07T06:41:36;4.80;;;3.05;;
30000;SDS011;16845;48.670;9.000;2023-05-07T06:44:03;4.85;;;3.25;;
30000;SDS011;16845;48.670;9.000;2023-05-07T06:46:30;6.75;;;2.83;;
30000;SDS011;16845;48.670;9.000;2023-05-07T06:48:58;4.47;;;2.95;;
30000;SDS011;16845;48.670;9.000;2023-05-07T06:51:24;3.42;;;3.13;;
30000;SDS011;16845;48.670;9.000;2023-05-07T06:53:50;7.75;;;2.80;;
30000;SDS011;16845;48.670;9.000;2023-05-07T06:56:17;7.43;;;4.75;;
30000;SDS011;16845;48.670;9.000;2023-05-07T06:58:43;3.17;;;2.63;;
30000;SDS011;16845;48.670;9.000;2023-05-07T07:01:10;2.60;;;2.40;;
30000;SDS011;16845;48.670;9.000;2023-05-07T07:03:36;3.78;;;2.97;;
30000;SDS011;16845;48.670;9.000;2023-05-07T07:06:04;3.08;;;2.67;;
30000;SDS011;16845;48.670;9.000;2023-05-07T07:08:31;3.85;;;3.35;;
30000;SDS011;16845;48.670;9.000;2023-05-07T07:10:57;5.50;;;2.80;;
30000;SDS011;16845;48.670;9.000;2023-05-07T07:13:24;2.95;;;2.40;;
30000;SDS011;16845;48.670;9.000;2023-05-07T07:15:51;7.53;;;2.67;;
30000;SDS011;16845;48.670;9.000;2023-05-07T07:18:17;6.18;;;2.83;;
30000;SDS011;16845;48.670;9.000;2023-05-07T07:20:44;7.55;;;2.78;;
30000;SDS011;16845;48.670;9.000;2023-05-07T07:23:12;3.35;;;2.67;;
30000;SDS011;16845;48.670;9.000;2023-05-07T07:25:38;6.40;;;2.60;;
30000;SDS011;16845;48.670;9.000;2023-05-07T07:28:04;6.68;;;2.38;;
30000;SDS011;16845;48.670;9.000;2023-05-07T07:30:31;4.87;;;2.60;;
30000;SDS011;16845;48.670;9.000;2023-05-07T07:32:58;3.60;;;2.27;;
30000;SDS011;16845;48.670;9.000;2023-05-07T07:35:24;3.67;;;3.00;;
30000;SDS011;16845;48.670;9.000;2023-05-07T07:37:51;3.90;;;2.03;;
30000;SDS011;16845;48.670;9.000;2023-05-07T07:40:18;7.28;;;2.25;;
30000;SDS011;16845;48.670;9.000;2023-05-07T07:42:45;4.75;;;2.05;;
30000;SDS011;16845;48.670;9.000;2023-05-07T07:45:11;4.10;;;2.17;;
30000;SDS011;16845;48.670;9.000;2023-05-07T07:47:38;2.50;;;2.03;;
30000;SDS011;16845;48.670;9.000;2023-05-07T07:50:05;3.60;;;2.83;;
30000;SDS011;16845;48.670;9.000;2023-05-07T07:52:32;2.67;;;1.98;;
30000;SDS011;16845;48.670;9.000;2023-05-07T07:54:59;3.43;;;2.77;;
30000;SDS011;16845;48.670;9.000;2023-05-07T07:57:27;2.97;;;2.20;;
30000;SDS011;16845;48.670;9.000;2023-05-07T07:59:53;2.53;;;2.03;;
30000;SDS011;16845;48.670;9.000;2023-05-07T08:02:20;3.00;;;2.50;;
30000;SDS011;16845;48.670;9.000;2023-05-07T08:04:46;2.03;;;1.83;;
30000;SDS011;16845;48.670;9.000;2023-05-07T08:07:13;5.13;;;2.33;;
30000;SDS011;16845;48.670;9.000;2023-05-07T08:09:39;4.20;;;1.97;;
30000;SDS011;16845;48.670;9.000;2023-05-07T08:12:06;3.22;;;1.95;;
30000;SDS011;16845;48.670;9.000;2023-05-07T08:14:34;7.05;;;2.35;;
30000;SDS011;16845;48.670;9.000;2023-05-07T08:17:01;3.25;;;2.08;;
30000;SDS011;16845;48.670;9.000;2023-05-07T08:19:27;3.10;;;1.60;;
30000;SDS011;16845;48.670;9.000;2023-05-07T08:21:54;4.27;;;2.20;;
30000;SDS011;16845;48.670;9.000;2023-05-07T08:24:20;4.20;;;1.73;;
30000;SDS011;16845;48.670;9.000;2023-05-07T08:26:47;4.47;;;1.70;;
30000;SDS011;16845;48.670;9.000;2023-05-07T08:29:13;5.53;;;1.90;;
30000;SDS011;16845;48.670;9.000;2023-05-07T08:31:41;2.43;;;1.50;;
30000;SDS011;16845;48.670;9.000;2023-05-07T08:34:08;1.40;;;1.30;;
30000;SDS011;16845;48.670;9.000;2023-05-07T08:36:35;1.90;;;1.52;;
30000;SDS011;16845;48.670;9.000;2023-05-07T08:39:02;2.22;;;1.27;;
30000;SDS011;16845;48.670;9.000;2023-05-07T08:41:28;2.75;;;1.40;;
30000;SDS011;16845;48.670;9.000;2023-05-07T08:43:55;2.47;;;1.48;;
30000;SDS011;16845;48.670;9.000;2023-05-07T08:46:24;3.47;;;1.80;;
30000;SDS011;16845;48.670;9.000;2023-05-07T08:48:53;3.13;;;1.20;;
30000;SDS011;16845;48.670;9.000;2023-05-07T08:51:20;1.60;;;1.40;;
30000;SDS011;16845;48.670;9.000;2023-05-07T08:53:47;2.90;;;1.42;;
30000;SDS011;16845;48.670;9.000;2023-05-07T08:56:15;5.03;;;1.98;;
30000;SDS011;16845;48.670;9.000;2023-05-07T08:58:42;5.18;;;1.67;;
30000;SDS011;16845;48.670;9.000;2023-05-07T09:01:09;2.35;;;1.70;;
30000;SDS011;16845;48.670;9.000;2023-05-07T09:03:38;2.78;;;1.45;;
30000;SDS011;16845;48.670;9.000;2023-05-07T09:06:07;3.88;;;1.60;;
30000;SDS011;16845;48.670;9.000;2023-05-07T09:08:33;2.67;;;1.20;;
30000;SDS011;16845;48.670;9.000;2023-05-07T09:11:00;2.60;;;1.25;;
30000;SDS011;16845;48.670;9.000;2023-05-07T09:13:27;2.03;;;1.50;;
30000;SDS011;16845;48.670;9.000;2023-05-07T09:15:54;5.45;;;1.63;;
30000;SDS011;16845;48.670;9.000;2023-05-07T09:18:21;1.90;;;1.30;;
30000;SDS011;16845;48.670;9.000;2023-05-07T09:20:49;3.22;;;1.70;;
30000;SDS011;16845;48.670;9.000;2023-05-07T09:23:17;3.28;;;1.98;;
30000;SDS011;16845;48.670;9.000;2023-05-07T09:25:43;2.20;;;1.52;;
30000;SDS011;16845;48.670;9.000;2023-05-07T09:28:10;3.55;;;1.60;;
30000;SDS011;16845;48.670;9.000;2023-05-07T09:30:36;3.70;;;1.70;;
30000;SDS011;16845;48.670;9.000;2023-05-07T09:33:03;4.47;;;2.20;;
30000;SDS011;16845;48.670;9.000;2023-05-07T09:35:30;3.83;;;1.77;;
30000;SDS011;16845;48.670;9.000;2023-05-07T09:37:57;3.13;;;1.65;;
30000;SDS011;16845;48.670;9.000;2023-05-07T09:40:28;2.05;;;1.58;;
30000;SDS011;16845;48.670;9.000;2023-05-07T09:42:55;2.13;;;1.60;;
30000;SDS011;16845;48.670;9.000;2023-05-07T09:45:22;3.70;;;1.60;;
30000;SDS011;16845;48.670;9.000;2023-05-07T09:47:49;1.85;;;1.60;;
30000;SDS011;16845;48.670;9.000;2023-05-07T09:50:19;3.90;;;1.70;;
30000;SDS011;16845;48.670;9.000;2023-05-07T09:52:51;4.05;;;2.13;;
30000;SDS011;16845;48.670;9.000;2023-05-07T09:55:18;7.68;;;1.75;;
30000;SDS011;16845;48.670;9.000;2023-05-07T09:57:47;4.55;;;1.50;;
30000;SDS011;16845;48.670;9.000;2023-05-07T10:00:16;3.33;;;1.75;;
30000;SDS011;16845;48.670;9.000;2023-05-07T10:02:44;3.55;;;1.83;;
30000;SDS011;16845;48.670;9.000;2023-05-07T10:05:12;4.25;;;1.52;;
30000;SDS011;16845;48.670;9.000;2023-05-07T10:07:40;5.65;;;1.75;;
30000;SDS011;16845;48.670;9.000;2023-05-07T10:12:33;4.40;;;1.40;;
30000;SDS011;16845;48.670;9.000;2023-05-07T10:15:03;2.17;;;1.67;;
30000;SDS011;16845;48.670;9.000;2023-05-07T10:17:31;2.50;;;1.90;;
30000;SDS011;16845;48.670;9.000;2023-05-07T10:19:58;4.32;;;1.90;;
30000;SDS011;16845;48.670;9.000;2023-05-07T10:22:24;3.05;;;1.80;;
30000;SDS011;16845;48.670;9.000;2023-05-07T10:24:52;8.27;;;1.98;;
30000;SDS011;16845;48.670;9.000;2023-05-07T10:27:19;4.28;;;1.83;;
30000;SDS011;16845;48.670;9.000;2023-05-07T10:29:50;2.50;;;1.67;;
30000;SDS011;16845;48.670;9.000;2023-05-07T10:32:35;2.38;;;1.65;;
30000;SDS011;16845;48.670;9.000;2023-05-07T10:35:06;3.78;;;1.63;;
30000;SDS011;16845;48.670;9.000;2023-05-07T10:37:36;2.85;;;1.50;;
30000;SDS011;16845;48.670;9.000;2023-05-07T10:42:30;1.85;;;1.60;;
30000;SDS011;16845;48.670;9.000;2023-05-07T10:44:57;2.05;;;1.33;;
30000;SDS011;16845;48.670;9.000;2023-05-07T10:47:23;3.38;;;1.52;;
30000;SDS011;16845;48.670;9.000;2023-05-07T10:55:49;2.33;;;1.30;;
30000;SDS011;16845;48.670;9.000;2023-05-07T10:58:23;6.07;;;1.50;;
30000;SDS011;16845;48.670;9.000;2023-05-07T11:00:56;5.28;;;1.95;;
30000;SDS011;16845;48.670;9.000;2023-05-07T11:03:23;4.32;;;1.52;;
30000;SDS011;16845;48.670;9.000;2023-05-07T11:08:54;3.47;;;1.80;;
30000;SDS011;16845;48.670;9.000;2023-05-07T11:14:13;3.92;;;1.50;;
30000;SDS011;16845;48.670;9.000;2023-05-07T11:16:40;2.20;;;1.40;;
30000;SDS011;16845;48.670;9.000;2023-05-07T11:19:09;2.95;;;1.83;;
30000;SDS011;16845;48.670;9.000;2023-05-07T11:21:37;3.63;;;1.50;;
30000;SDS011;16845;48.670;9.000;2023-05-07T11:24:05;2.85;;;1.50;;
30000;SDS011;16845;48.670;9.000;2023-05-07T11:26:41;4.13;;;1.92;;
30000;SDS011;16845;48.670;9.000;2023-05-07T11:29:10;3.85;;;1.83;;
30000;SDS011;16845;48.670;9.000;2023-05-07T11:31:37;2.63;;;1.85;;
30000;SDS011;16845;48.670;9.000;2023-05-07T11:36:31;4.35;;;1.75;;
30000;SDS011;16845;48.670;9.000;2023-05-07T11:39:00;5.40;;;1.55;;
30000;SDS011;16845;48.670;9.000;2023-05-07T11:41:33;2.35;;;1.65;;
30000;SDS011;16845;48.670;9.000;2023-05-07T11:44:00;3.47;;;2.05;;
30000;SDS011;16845;48.670;9.000;2023-05-07T11:46:27;2.30;;;1.50;;
30000;SDS011;16845;48.670;9.000;2023-05-07T11:51:21;3.08;;;1.80;;
30000;SDS011;16845;48.670;9.000;2023-05-07T11:53:48;6.53;;;2.08;;
30000;SDS011;16845;48.670;9.000;2023-05-07T11:56:18;3.78;;;2.25;;
30000;SDS011;16845;48.670;9.000;2023-05-07T11:58:45;4.05;;;2.50;;
30000;SDS011;16845;48.670;9.000;2023-05-07T12:01:13;5.65;;;2.22;;
30000;SDS011;16845;48.670;9.000;2023-05-07T12:03:40;5.60;;;2.20;;
30000;SDS011;16845;48.670;9.000;2023-05-07T12:06:08;5.78;;;2.70;;
30000;SDS011;16845;48.670;9.000;2023-05-07T12:08:36;7.85;;;3.20;;
30000;SDS011;16845;48.670;9.000;2023-05-07T12:11:03;6.60;;;1.80;;
30000;SDS011;16845;48.670;9.000;2023-05-07T12:13:34;6.47;;;3.20;;
30000;SDS011;16845;48.670;9.000;2023-05-07T12:16:01;4.32;;;1.08;;
30000;SDS011;16845;48.670;9.000;2023-05-07T12:18:28;4.47;;;1.48;;
30000;SDS011;16845;48.670;9.000;2023-05-07T12:20:55;2.92;;;1.55;;
30000;SDS011;16845;48.670;9.000;2023-05-07T12:23:21;5.70;;;1.92;;
30000;SDS011;16845;48.670;9.000;2023-05-07T12:25:48;2.58;;;1.40;;
30000;SDS011;16845;48.670;9.000;2023-05-07T12:28:15;3.10;;;2.17;;
30000;SDS011;16845;48.670;9.000;2023-05-07T12:30:43;2.88;;;1.15;;
30000;SDS011;16845;48.670;9.000;2023-05-07T12:33:10;3.47;;;1.45;;
30000;SDS011;16845;48.670;9.000;2023-05-07T12:35:38;1.70;;;1.40;;
30000;SDS011;16845;48.670;9.000;2023-05-07T12:38:07;3.40;;;1.88;;
30000;SDS011;16845;48.670;9.000;2023-05-07T12:40:35;2.85;;;1.23;;
30000;SDS011;16845;48.670;9.000;2023-05-07T12:43:02;10.38;;;2.55;;
30000;SDS011;16845;48.670;9.000;2023-05-07T12:45:29;12.27;;;2.88;;
30000;SDS011;16845;48.670;9.000;2023-05-07T12:47:57;9.07;;;3.23;;
30000;SDS011;16845;48.670;9.000;2023-05-07T12:50:30;13.75;;;3.95;;
30000;SDS011;16845;48.670;9.000;2023-05-07T12:52:57;7.93;;;3.35;;
30000;SDS011;16845;48.670;9.000;2023-05-07T12:55:23;11.05;;;3.00;;
30000;SDS011;16845;48.670;9.000;2023-05-07T12:57:50;11.07;;;4.45;;
30000;SDS011;16845;48.670;9.000;2023-05-07T13:00:17;27.95;;;5.93;;
30000;SDS011;16845;48.670;9.000;2023-05-07T13:02:44;11.23;;;4.47;;
30000;SDS011;16845;48.670;9.000;2023-05-07T13:07:39;4.65;;;3.85;;
30000;SDS011;16845;48.670;9.000;2023-05-07T13:10:06;12.27;;;4.90;;
30000;SDS011;16845;48.670;9.000;2023-05-07T13:12:33;6.15;;;3.08;;
30000;SDS011;16845;48.670;9.000;2023-05-07T13:14:59;7.88;;;4.38;;
30000;SDS011;16845;48.670;9.000;2023-05-07T13:17:26;10.13;;;3.42;;
30000;SDS011;16845;48.670;9.000;2023-05-07T13:19:53;1.97;;;1.73;;
30000;SDS011;16845;48.670;9.000;2023-05-07T13:22:20;3.97;;;1.38;;
30000;SDS011;16845;48.670;9.000;2023-05-07T13:24:47;11.77;;;2.88;;
30000;SDS011;16845;48.670;9.000;2023-05-07T13:27:13;6.07;;;3.63;;
30000;SDS011;16845;48.670;9.000;2023-05-07T13:29:40;14.02;;;3.85;;
30000;SDS011;16845;48.670;9.000;2023-05-07T13:32:06;7.03;;;2.92;;
30000;SDS011;16845;48.670;9.000;2023-05-07T13:34:33;5.97;;;3.97;;
30000;SDS011;16845;48.670;9.000;2023-05-07T13:36:59;6.47;;;3.97;;
30000;SDS011;16845;48.670;9.000;2023-05-07T13:39:27;11.40;;;4.18;;
30000;SDS011;16845;48.670;9.000;2023-05-07T13:41:53;7.30;;;4.60;;
30000;SDS011;16845;48.670;9.000;2023-05-07T13:44:20;10.77;;;4.82;;
30000;SDS011;16845;48.670;9.000;2023-05-07T13:46:46;9.40;;;4.90;;
30000;SDS011;16845;48.670;9.000;2023-05-07T13:49:13;6.93;;;5.15;;
30000;SDS011;16845;48.670;9.000;2023-05-07T13:51:39;8.93;;;5.28;;
30000;SDS011;16845;48.670;9.000;2023-05-07T13:54:06;14.10;;;6.43;;
30000;SDS011;16845;48.670;9.000;2023-05-07T13:56:33;9.40;;;5.55;;
30000;SDS011;16845;48.670;9.000;2023-05-07T13:59:00;12.07;;;5.70;;
30000;SDS011;16845;48.670;9.000;2023-05-07T14:01:27;9.43;;;4.93;;
30000;SDS011;16845;48.670;9.000;2023-05-07T14:03:53;7.78;;;4.68;;
30000;SDS011;16845;48.670;9.000;2023-05-07T14:06:21;9.23;;;4.28;;
30000;SDS011;16845;48.670;9.000;2023-05-07T14:08:48;9.20;;;4.57;;
30000;SDS011;16845;48.670;9.000;2023-05-07T14:11:14;7.63;;;3.58;;
30000;SDS011;16845;48.670;9.000;2023-05-07T14:13:42;4.85;;;3.22;;
30000;SDS011;16845;48.670;9.000;2023-05-07T14:16:08;4.47;;;3.38;;
30000;SDS011;16845;48.670;9.000;2023-05-07T14:18:35;5.72;;;3.90;;
30000;SDS011;16845;48.670;9.000;2023-05-07T14:21:01;7.40;;;3.28;;
30000;SDS011;16845;48.670;9.000;2023-05-07T14:23:28;5.73;;;3.47;;
30000;SDS011;16845;48.670;9.000;2023-05-07T14:25:54;6.88;;;3.38;;
30000;SDS011;16845;48.670;9.000;2023-05-07T14:28:21;8.35;;;4.22;;
30000;SDS011;16845;48.670;9.000;2023-05-07T14:30:49;8.13;;;3.47;;
30000;SDS011;16845;48.670;9.000;2023-05-07T14:33:15;10.20;;;4.07;;
30000;SDS011;16845;48.670;9.000;2023-05-07T14:35:41;5.50;;;4.00;;
30000;SDS011;16845;48.670;9.000;2023-05-07T14:38:08;6.28;;;3.88;;
30000;SDS011;16845;48.670;9.000;2023-05-07T14:40:34;5.93;;;3.30;;
30000;SDS011;16845;48.670;9.000;2023-05-07T14:43:01;5.72;;;3.47;;
30000;SDS011;16845;48.670;9.000;2023-05-07T14:45:27;6.75;;;3.17;;
30000;SDS011;16845;48.670;9.000;2023-05-07T14:47:55;3.97;;;2.80;;
30000;SDS011;16845;48.670;9.000;2023-05-07T14:50:21;8.85;;;3.55;;
30000;SDS011;16845;48.670;9.000;2023-05-07T14:52:48;5.22;;;3.38;;
30000;SDS011;16845;48.670;9.000;2023-05-07T14:55:14;5.15;;;2.80;;
30000;SDS011;16845;48.670;9.000;2023-05-07T14:57:41;8.90;;;3.57;;
30000;SDS011;16845;48.670;9.000;2023-05-07T15:00:08;4.65;;;3.55;;
30000;SDS011;16845;48.670;9.000;2023-05-07T15:05:03;5.93;;;3.42;;
30000;SDS011;16845;48.670;9.000;2023-05-07T15:07:30;5.38;;;3.28;;
30000;SDS011;16845;48.670;9.000;2023-05-07T15:09:56;4.72;;;3.53;;
30000;SDS011;16845;48.670;9.000;2023-05-07T15:12:23;4.40;;;3.13;;